createdAt,value
2022-11-24T00:00:25.998Z,88.79
2022-11-24T00:01:25.984Z,88.68
2022-11-24T00:02:26.082Z,88.58
2022-11-24T00:03:25.993Z,88.58
2022-11-24T00:04:25.975Z,88.58
2022-11-24T00:05:25.923Z,88.58
2022-11-24T00:06:25.935Z,88.58
2022-11-24T00:07:25.924Z,88.68
2022-11-24T00:08:25.896Z,88.79
2022-11-24T00:09:25.935Z,88.79
2022-11-24T00:10:25.875Z,88.79
2022-11-24T00:11:25.870Z,88.79
2022-11-24T00:12:25.840Z,88.79
2022-11-24T00:13:25.828Z,88.89
2022-11-24T00:14:25.879Z,88.89
2022-11-24T00:15:25.817Z,89.00
2022-11-24T00:16:25.896Z,89.00
2022-11-24T00:17:25.801Z,88.89
2022-11-24T00:18:25.787Z,88.79
2022-11-24T00:19:25.790Z,88.79
2022-11-24T00:20:25.748Z,88.85
2022-11-24T00:21:25.741Z,88.68
2022-11-24T00:22:25.757Z,88.58
2022-11-24T00:23:25.732Z,88.58
2022-11-24T00:24:25.732Z,88.68
2022-11-24T00:25:25.708Z,88.68
2022-11-24T00:26:25.679Z,88.68
2022-11-24T00:27:25.710Z,88.58
2022-11-24T00:28:25.673Z,88.58
2022-11-24T00:29:25.641Z,88.58
2022-11-24T00:30:25.729Z,88.58
2022-11-24T00:31:25.664Z,88.68
2022-11-24T00:32:25.673Z,88.79
2022-11-24T00:33:25.599Z,88.79
2022-11-24T00:34:25.593Z,88.68
2022-11-24T00:35:25.594Z,88.79
2022-11-24T00:36:25.599Z,88.89
2022-11-24T00:37:25.603Z,88.79
2022-11-24T00:38:25.539Z,88.58
2022-11-24T00:39:25.595Z,88.37
2022-11-24T00:40:25.534Z,88.27
2022-11-24T00:41:25.522Z,88.06
2022-11-24T00:42:25.503Z,88.02
2022-11-24T00:43:25.514Z,88.17
2022-11-24T00:44:25.481Z,88.06
2022-11-24T00:45:25.515Z,87.96
2022-11-24T00:46:25.632Z,87.96
2022-11-24T00:47:25.491Z,87.96
2022-11-24T00:48:25.431Z,87.96
2022-11-24T00:49:25.455Z,88.06
2022-11-24T00:50:25.444Z,88.17
2022-11-24T00:51:25.416Z,88.17
2022-11-24T00:52:25.413Z,88.12
2022-11-24T00:53:25.401Z,88.12
2022-11-24T00:54:25.385Z,88.12
2022-11-24T00:55:25.377Z,87.92
2022-11-24T00:56:25.404Z,87.81
2022-11-24T00:57:25.371Z,87.81
2022-11-24T00:58:25.353Z,87.71
2022-11-24T00:59:25.318Z,87.71
2022-11-24T01:00:25.339Z,87.60
2022-11-24T01:01:25.309Z,87.71
2022-11-24T01:02:25.363Z,87.50
2022-11-24T01:03:25.278Z,87.40
2022-11-24T01:04:25.275Z,87.40
2022-11-24T01:05:25.258Z,87.40
2022-11-24T01:06:25.225Z,87.40
2022-11-24T01:07:25.235Z,87.40
2022-11-24T01:08:25.210Z,87.50
2022-11-24T01:09:25.217Z,87.56
2022-11-24T01:10:25.189Z,87.56
2022-11-24T01:11:25.209Z,87.56
2022-11-24T01:12:25.166Z,87.56
2022-11-24T01:13:25.191Z,87.56
2022-11-24T01:14:25.189Z,87.35
2022-11-24T01:15:25.134Z,87.15
2022-11-24T01:16:25.218Z,87.35
2022-11-24T01:17:25.111Z,87.35
2022-11-24T01:18:25.100Z,87.15
2022-11-24T01:19:25.147Z,87.04
2022-11-24T01:20:25.068Z,87.04
2022-11-24T01:21:25.094Z,87.04
2022-11-24T01:22:25.071Z,87.15
2022-11-24T01:23:25.059Z,87.35
2022-11-24T01:24:25.020Z,87.35
2022-11-24T01:25:25.044Z,87.21
2022-11-24T01:26:25.033Z,87.11
2022-11-24T01:27:24.979Z,87.01
2022-11-24T01:28:24.982Z,86.80
2022-11-24T01:29:24.981Z,86.83
2022-11-24T01:30:24.983Z,86.94
2022-11-24T01:31:24.998Z,87.04
2022-11-24T01:32:24.982Z,87.01
2022-11-24T01:33:24.934Z,87.25
2022-11-24T01:34:24.914Z,87.25
2022-11-24T01:35:24.910Z,87.15
2022-11-24T01:36:24.913Z,87.35
2022-11-24T01:37:24.915Z,87.35
2022-11-24T01:38:24.894Z,87.66
2022-11-24T01:39:24.842Z,87.98
2022-11-24T01:40:24.832Z,87.98
2022-11-24T01:41:24.812Z,87.88
2022-11-24T01:42:24.854Z,87.98
2022-11-24T01:43:24.946Z,87.98
2022-11-24T01:44:24.804Z,87.84
2022-11-24T01:45:24.837Z,88.09
2022-11-24T01:46:24.820Z,88.15
2022-11-24T01:47:24.772Z,88.04
2022-11-24T01:48:27.379Z,88.04
2022-11-24T01:49:24.746Z,88.46
2022-11-24T01:50:24.737Z,88.35
2022-11-24T01:51:24.749Z,88.35
2022-11-24T01:52:24.694Z,88.67
2022-11-24T01:53:24.717Z,88.67
2022-11-24T01:54:24.665Z,88.67
2022-11-24T01:55:24.677Z,88.77
2022-11-24T01:56:24.674Z,88.56
2022-11-24T01:57:24.705Z,88.67
2022-11-24T01:58:24.648Z,88.46
2022-11-24T01:59:24.624Z,88.46
2022-11-24T02:00:24.604Z,88.67
2022-11-24T02:01:24.657Z,88.87
2022-11-24T02:02:24.673Z,88.77
2022-11-24T02:03:24.637Z,88.87
2022-11-24T02:04:24.601Z,89.08
2022-11-24T02:05:24.555Z,89.18
2022-11-24T02:06:24.550Z,89.18
2022-11-24T02:07:24.614Z,89.18
2022-11-24T02:08:24.520Z,89.39
2022-11-24T02:09:24.510Z,89.39
2022-11-24T02:10:24.549Z,89.39
2022-11-24T02:11:24.511Z,89.39
2022-11-24T02:12:24.470Z,89.50
2022-11-24T02:13:24.449Z,89.50
2022-11-24T02:14:24.471Z,89.60
2022-11-24T02:15:24.430Z,89.81
2022-11-24T02:16:24.495Z,90.12
2022-11-24T02:17:24.442Z,90.02
2022-11-24T02:18:24.395Z,90.23
2022-11-24T02:19:24.432Z,90.44
2022-11-24T02:20:24.369Z,90.44
2022-11-24T02:21:24.388Z,90.33
2022-11-24T02:22:24.391Z,90.33
2022-11-24T02:23:24.381Z,90.23
2022-11-24T02:24:24.345Z,90.23
2022-11-24T02:25:24.318Z,90.44
2022-11-24T02:26:24.299Z,90.44
2022-11-24T02:27:24.320Z,90.54
2022-11-24T02:28:24.313Z,90.54
2022-11-24T02:29:24.282Z,90.75
2022-11-24T02:30:24.282Z,90.95
2022-11-24T02:31:24.298Z,91.06
2022-11-24T02:32:24.272Z,90.85
2022-11-24T02:33:24.241Z,90.64
2022-11-24T02:34:24.221Z,90.75
2022-11-24T02:35:24.230Z,90.95
2022-11-24T02:36:24.219Z,91.06
2022-11-24T02:37:24.196Z,91.06
2022-11-24T02:38:24.175Z,91.06
2022-11-24T02:39:24.167Z,91.27
2022-11-24T02:40:24.173Z,91.27
2022-11-24T02:41:24.152Z,91.58
2022-11-24T02:42:24.156Z,91.68
2022-11-24T02:43:24.103Z,91.68
2022-11-24T02:44:24.119Z,91.78
2022-11-24T02:45:24.117Z,91.89
2022-11-24T02:46:24.101Z,92.20
2022-11-24T02:47:24.120Z,92.20
2022-11-24T02:48:24.053Z,92.41
2022-11-24T02:49:24.114Z,92.41
2022-11-24T02:50:24.049Z,92.30
2022-11-24T02:51:24.037Z,92.30
2022-11-24T02:52:24.017Z,92.20
2022-11-24T02:53:24.047Z,92.10
2022-11-24T02:54:24.017Z,92.10
2022-11-24T02:55:23.993Z,92.41
2022-11-24T02:56:23.979Z,92.51
2022-11-24T02:57:23.968Z,92.72
2022-11-24T02:58:23.983Z,92.78
2022-11-24T02:59:23.967Z,92.82
2022-11-24T03:00:23.931Z,92.72
2022-11-24T03:01:24.031Z,92.68
2022-11-24T03:02:23.939Z,92.68
2022-11-24T03:03:23.900Z,92.57
2022-11-24T03:04:23.936Z,92.41
2022-11-24T03:05:23.876Z,92.47
2022-11-24T03:06:23.881Z,92.57
2022-11-24T03:07:23.898Z,92.57
2022-11-24T03:08:23.830Z,92.68
2022-11-24T03:09:23.847Z,92.78
2022-11-24T03:10:23.817Z,92.78
2022-11-24T03:11:23.810Z,92.78
2022-11-24T03:12:23.793Z,92.68
2022-11-24T03:13:23.798Z,92.68
2022-11-24T03:14:23.757Z,92.47
2022-11-24T03:15:23.783Z,92.57
2022-11-24T03:16:23.836Z,92.68
2022-11-24T03:17:23.742Z,92.68
2022-11-24T03:18:23.751Z,92.68
2022-11-24T03:19:23.730Z,92.68
2022-11-24T03:20:23.703Z,92.78
2022-11-24T03:21:23.680Z,92.88
2022-11-24T03:22:23.660Z,92.84
2022-11-24T03:23:23.684Z,92.84
2022-11-24T03:24:23.700Z,92.84
2022-11-24T03:25:23.631Z,92.84
2022-11-24T03:26:23.621Z,92.84
2022-11-24T03:27:23.632Z,92.74
2022-11-24T03:28:23.601Z,92.84
2022-11-24T03:29:23.612Z,92.84
2022-11-24T03:30:23.591Z,92.84
2022-11-24T03:31:23.673Z,92.84
2022-11-24T03:32:23.573Z,92.84
2022-11-24T03:33:23.574Z,92.84
2022-11-24T03:34:23.596Z,92.63
2022-11-24T03:35:23.566Z,92.63
2022-11-24T03:36:23.543Z,92.63
2022-11-24T03:37:23.519Z,92.63
2022-11-24T03:38:23.504Z,92.53
2022-11-24T03:39:23.465Z,92.43
2022-11-24T03:40:23.514Z,92.32
2022-11-24T03:41:23.526Z,92.43
2022-11-24T03:42:23.443Z,92.53
2022-11-24T03:43:23.475Z,92.53
2022-11-24T03:44:23.457Z,92.43
2022-11-24T03:45:45.060Z,92.43
2022-11-24T03:46:24.448Z,92.53
2022-11-24T03:47:23.399Z,92.63
2022-11-24T03:48:23.412Z,92.74
2022-11-24T03:49:23.384Z,92.74
2022-11-24T03:50:23.376Z,92.84
2022-11-24T03:51:23.349Z,92.84
2022-11-24T03:52:23.335Z,92.84
2022-11-24T03:53:23.379Z,92.84
2022-11-24T03:54:23.320Z,92.88
2022-11-24T03:55:23.309Z,92.99
2022-11-24T03:56:23.318Z,92.99
2022-11-24T03:57:23.277Z,93.10
2022-11-24T03:58:23.287Z,93.20
2022-11-24T03:59:23.302Z,93.10
2022-11-24T04:00:23.378Z,93.30
2022-11-24T04:01:23.353Z,93.41
2022-11-24T04:02:23.259Z,93.62
2022-11-24T04:03:23.241Z,93.72
2022-11-24T04:04:23.188Z,93.72
2022-11-24T04:05:23.192Z,93.93
2022-11-24T04:06:23.213Z,94.03
2022-11-24T04:07:23.249Z,93.93
2022-11-24T04:08:23.184Z,93.93
2022-11-24T04:09:23.153Z,94.03
2022-11-24T04:10:23.136Z,94.03
2022-11-24T04:11:23.139Z,94.13
2022-11-24T04:12:23.145Z,94.24
2022-11-24T04:13:23.115Z,94.13
2022-11-24T04:14:23.085Z,93.93
2022-11-24T04:15:23.070Z,93.82
2022-11-24T04:16:23.101Z,93.62
2022-11-24T04:17:23.102Z,93.62
2022-11-24T04:18:23.095Z,93.62
2022-11-24T04:19:23.029Z,93.72
2022-11-24T04:20:23.024Z,93.82
2022-11-24T04:21:22.992Z,93.93
2022-11-24T04:22:22.993Z,93.93
2022-11-24T04:23:23.046Z,94.03
2022-11-24T04:24:22.978Z,93.93
2022-11-24T04:25:22.975Z,93.93
2022-11-24T04:26:22.955Z,93.72
2022-11-24T04:27:22.942Z,93.62
2022-11-24T04:28:22.997Z,93.62
2022-11-24T04:29:22.916Z,93.51
2022-11-24T04:30:22.900Z,93.62
2022-11-24T04:31:22.958Z,93.72
2022-11-24T04:32:22.873Z,93.72
2022-11-24T04:33:22.894Z,93.62
2022-11-24T04:34:22.874Z,93.51
2022-11-24T04:35:22.835Z,93.41
2022-11-24T04:36:22.857Z,93.51
2022-11-24T04:37:22.854Z,93.72
2022-11-24T04:39:20.122Z,93.82
2022-11-24T04:39:28.394Z,93.82
2022-11-24T04:40:23.797Z,93.93
2022-11-24T04:41:22.774Z,93.93
2022-11-24T04:42:22.777Z,94.03
2022-11-24T04:43:22.799Z,94.03
2022-11-24T04:44:22.733Z,93.93
2022-11-24T04:45:22.718Z,94.13
2022-11-24T04:46:22.785Z,94.13
2022-11-24T04:47:22.738Z,94.03
2022-11-24T04:48:22.719Z,93.93
2022-11-24T04:49:22.705Z,93.99
2022-11-24T04:50:22.667Z,93.99
2022-11-24T04:51:22.647Z,93.88
2022-11-24T04:52:22.657Z,93.78
2022-11-24T04:53:22.656Z,93.68
2022-11-24T04:54:22.637Z,93.57
2022-11-24T04:55:22.621Z,93.37
2022-11-24T04:56:22.627Z,93.37
2022-11-24T04:57:22.587Z,93.37
2022-11-24T04:58:22.602Z,93.37
2022-11-24T04:59:22.571Z,93.47
2022-11-24T05:00:22.551Z,93.57
2022-11-24T05:01:22.646Z,93.47
2022-11-24T05:02:22.549Z,93.43
2022-11-24T05:03:22.552Z,93.43
2022-11-24T05:04:22.586Z,93.32
2022-11-24T05:05:22.499Z,93.12
2022-11-24T05:06:22.479Z,93.12
2022-11-24T05:07:22.675Z,93.01
2022-11-24T05:08:22.471Z,93.01
2022-11-24T05:09:22.482Z,93.01
2022-11-24T05:10:22.453Z,93.01
2022-11-24T05:11:22.445Z,93.16
2022-11-24T05:12:22.439Z,93.12
2022-11-24T05:13:22.402Z,93.12
2022-11-24T05:14:22.411Z,92.90
2022-11-24T05:15:22.434Z,92.80
2022-11-24T05:16:22.467Z,92.90
2022-11-24T05:17:22.374Z,92.90
2022-11-24T05:18:22.356Z,92.80
2022-11-24T05:19:22.331Z,92.69
2022-11-24T05:20:22.342Z,92.69
2022-11-24T05:21:22.366Z,92.80
2022-11-24T05:22:22.320Z,92.80
2022-11-24T05:23:22.315Z,92.80
2022-11-24T05:24:22.281Z,92.69
2022-11-24T05:25:22.273Z,92.90
2022-11-24T05:26:22.296Z,93.01
2022-11-24T05:27:22.266Z,92.90
2022-11-24T05:28:22.272Z,92.90
2022-11-24T05:29:22.237Z,92.90
2022-11-24T05:30:22.262Z,92.90
2022-11-24T05:31:22.264Z,92.90
2022-11-24T05:32:22.217Z,93.01
2022-11-24T05:33:22.205Z,93.01
2022-11-24T05:34:22.185Z,93.12
2022-11-24T05:35:22.170Z,93.12
2022-11-24T05:36:22.145Z,93.12
2022-11-24T05:37:22.168Z,93.12
2022-11-24T05:38:22.116Z,93.01
2022-11-24T05:39:22.149Z,92.90
2022-11-24T05:40:22.106Z,92.90
2022-11-24T05:41:22.085Z,92.90
2022-11-24T05:42:22.119Z,92.80
2022-11-24T05:43:22.075Z,92.69
2022-11-24T05:44:22.102Z,92.59
2022-11-24T05:45:22.070Z,92.69
2022-11-24T05:46:22.100Z,92.80
2022-11-24T05:47:22.029Z,92.90
2022-11-24T05:48:22.052Z,92.90
2022-11-24T05:49:21.997Z,92.90
2022-11-24T05:50:22.017Z,92.90
2022-11-24T05:51:22.040Z,92.80
2022-11-24T05:52:21.970Z,92.80
2022-11-24T05:53:21.978Z,92.80
2022-11-24T05:54:21.960Z,92.84
2022-11-24T05:55:21.952Z,92.94
2022-11-24T05:56:21.967Z,93.05
2022-11-24T05:57:21.930Z,93.16
2022-11-24T05:58:21.906Z,93.26
2022-11-24T05:59:21.970Z,93.26
2022-11-24T06:00:21.879Z,93.16
2022-11-24T06:01:21.882Z,93.16
2022-11-24T06:02:21.956Z,93.16
2022-11-24T06:03:21.850Z,93.26
2022-11-24T06:04:21.849Z,93.16
2022-11-24T06:05:21.853Z,93.05
2022-11-24T06:06:21.828Z,93.05
2022-11-24T06:07:21.929Z,93.26
2022-11-24T06:08:24.513Z,93.37
2022-11-24T06:09:22.831Z,93.51
2022-11-24T06:10:21.784Z,93.51
2022-11-24T06:11:21.785Z,93.51
2022-11-24T06:12:21.753Z,93.62
2022-11-24T06:13:21.788Z,93.72
2022-11-24T06:14:21.754Z,93.93
2022-11-24T06:15:21.732Z,94.03
2022-11-24T06:16:21.731Z,94.24
2022-11-24T06:17:21.694Z,94.55
2022-11-24T06:18:21.691Z,94.76
2022-11-24T06:19:21.675Z,94.86
2022-11-24T06:20:21.673Z,94.86
2022-11-24T06:21:21.685Z,94.96
2022-11-24T06:22:21.632Z,94.86
2022-11-24T06:23:21.655Z,94.65
2022-11-24T06:24:21.603Z,94.55
2022-11-24T06:25:21.606Z,94.34
2022-11-24T06:26:21.583Z,94.45
2022-11-24T06:27:21.637Z,94.34
2022-11-24T06:28:21.603Z,94.20
2022-11-24T06:29:21.554Z,94.13
2022-11-24T06:30:22.576Z,94.03
2022-11-24T06:31:21.593Z,94.03
2022-11-24T06:32:21.577Z,93.88
2022-11-24T06:33:21.522Z,93.88
2022-11-24T06:34:21.528Z,93.88
2022-11-24T06:35:21.499Z,93.99
2022-11-24T06:36:21.488Z,93.99
2022-11-24T06:37:21.476Z,93.99
2022-11-24T06:38:24.297Z,93.88
2022-11-24T06:39:21.479Z,93.88
2022-11-24T06:40:21.446Z,93.88
2022-11-24T06:41:21.451Z,93.88
2022-11-24T06:42:21.408Z,93.88
2022-11-24T06:43:21.440Z,93.78
2022-11-24T06:44:21.379Z,93.68
2022-11-24T06:45:21.396Z,93.47
2022-11-24T06:46:21.515Z,93.47
2022-11-24T06:47:21.346Z,93.37
2022-11-24T06:48:21.339Z,93.47
2022-11-24T06:49:21.391Z,93.37
2022-11-24T06:50:21.307Z,93.26
2022-11-24T06:51:21.332Z,93.26
2022-11-24T06:52:21.323Z,93.37
2022-11-24T06:53:21.292Z,93.47
2022-11-24T06:54:21.318Z,93.57
2022-11-24T06:55:21.296Z,93.68
2022-11-24T06:56:21.271Z,93.68
2022-11-24T06:57:21.237Z,93.88
2022-11-24T06:58:21.227Z,93.99
2022-11-24T06:59:21.223Z,93.78
2022-11-24T07:00:21.240Z,93.68
2022-11-24T07:01:21.277Z,93.68
2022-11-24T07:02:21.188Z,93.68
2022-11-24T07:03:21.265Z,93.88
2022-11-24T07:04:21.197Z,93.88
2022-11-24T07:05:22.159Z,93.99
2022-11-24T07:06:21.184Z,93.88
2022-11-24T07:07:21.248Z,93.88
2022-11-24T07:08:21.125Z,93.78
2022-11-24T07:09:21.104Z,93.68
2022-11-24T07:10:21.087Z,93.78
2022-11-24T07:11:21.078Z,93.78
2022-11-24T07:12:21.114Z,93.78
2022-11-24T07:13:21.067Z,93.88
2022-11-24T07:14:21.105Z,93.78
2022-11-24T07:15:21.030Z,93.68
2022-11-24T07:16:21.095Z,93.68
2022-11-24T07:17:21.007Z,93.78
2022-11-24T07:18:21.019Z,93.78
2022-11-24T07:19:24.843Z,93.78
2022-11-24T07:20:21.021Z,93.88
2022-11-24T07:21:20.963Z,93.78
2022-11-24T07:22:20.997Z,93.68
2022-11-24T07:23:20.955Z,93.37
2022-11-24T07:24:20.936Z,93.12
2022-11-24T07:25:20.958Z,93.01
2022-11-24T07:26:21.278Z,92.90
2022-11-24T07:27:20.908Z,92.90
2022-11-24T07:28:20.897Z,92.90
2022-11-24T07:29:20.902Z,92.69
2022-11-24T07:30:20.897Z,92.28
2022-11-24T07:31:20.953Z,92.03
2022-11-24T07:32:20.953Z,91.83
2022-11-24T07:33:20.825Z,91.72
2022-11-24T07:34:20.849Z,91.62
2022-11-24T07:35:20.820Z,91.83
2022-11-24T07:36:21.214Z,91.72
2022-11-24T07:37:20.780Z,91.72
2022-11-24T07:38:20.810Z,91.83
2022-11-24T07:39:20.757Z,91.72
2022-11-24T07:40:20.759Z,91.72
2022-11-24T07:41:20.792Z,91.72
2022-11-24T07:42:20.788Z,91.62
2022-11-24T07:43:20.732Z,91.72
2022-11-24T07:44:20.741Z,91.83
2022-11-24T07:45:20.689Z,91.83
2022-11-24T07:46:20.775Z,91.93
2022-11-24T07:47:20.688Z,91.93
2022-11-24T07:48:20.698Z,91.93
2022-11-24T07:49:20.708Z,92.03
2022-11-24T07:50:20.672Z,92.03
2022-11-24T07:51:20.647Z,91.83
2022-11-24T07:52:20.633Z,91.78
2022-11-24T07:53:20.622Z,91.68
2022-11-24T07:54:20.600Z,91.58
2022-11-24T07:55:20.614Z,91.58
2022-11-24T07:56:20.614Z,91.47
2022-11-24T07:57:20.561Z,91.37
2022-11-24T07:58:20.570Z,91.12
2022-11-24T07:59:20.561Z,90.91
2022-11-24T08:00:20.542Z,90.81
2022-11-24T08:01:20.594Z,90.35
2022-11-24T08:02:20.500Z,89.83
2022-11-24T08:03:20.552Z,89.28
2022-11-24T08:04:20.516Z,88.96
2022-11-24T08:05:20.505Z,88.51
2022-11-24T08:06:26.523Z,88.40
2022-11-24T08:07:21.523Z,87.99
2022-11-24T08:08:20.485Z,87.68
2022-11-24T08:09:20.431Z,87.68
2022-11-24T08:10:20.449Z,87.68
2022-11-24T08:11:20.418Z,87.47
2022-11-24T08:12:20.426Z,87.27
2022-11-24T08:13:20.393Z,87.37
2022-11-24T08:14:20.381Z,87.27
2022-11-24T08:15:20.416Z,86.96
2022-11-24T08:16:20.442Z,87.27
2022-11-24T08:17:20.343Z,86.96
2022-11-24T08:18:21.335Z,87.02
2022-11-24T08:19:20.317Z,87.02
2022-11-24T08:20:20.328Z,86.71
2022-11-24T08:21:20.301Z,86.71
2022-11-24T08:22:20.284Z,86.60
2022-11-24T08:23:20.273Z,86.50
2022-11-24T08:24:20.258Z,86.15
2022-11-24T08:25:20.266Z,86.15
2022-11-24T08:26:20.241Z,86.05
2022-11-24T08:27:20.610Z,86.25
2022-11-24T08:28:20.219Z,85.70
2022-11-24T08:29:20.239Z,85.28
2022-11-24T08:30:20.220Z,85.08
2022-11-24T08:31:20.490Z,85.39
2022-11-24T08:32:22.452Z,85.18
2022-11-24T08:33:20.151Z,84.87
2022-11-24T08:34:20.149Z,84.87
2022-11-24T08:35:20.139Z,85.39
2022-11-24T08:36:20.127Z,85.49
2022-11-24T08:37:20.379Z,85.28
2022-11-24T08:38:20.125Z,85.49
2022-11-24T08:39:20.099Z,85.70
2022-11-24T08:40:20.112Z,85.80
2022-11-24T08:41:20.065Z,86.15
2022-11-24T08:42:21.069Z,86.52
2022-11-24T08:43:20.060Z,85.80
2022-11-24T08:44:20.144Z,85.80
2022-11-24T08:45:21.619Z,85.70
2022-11-24T08:46:20.066Z,85.70
2022-11-24T08:47:19.980Z,85.45
2022-11-24T08:48:19.983Z,85.45
2022-11-24T08:49:19.999Z,85.31
2022-11-24T08:50:19.970Z,85.00
2022-11-24T08:51:19.948Z,85.00
2022-11-24T08:52:19.980Z,84.38
2022-11-24T08:53:19.924Z,84.07
2022-11-24T08:54:19.922Z,84.13
2022-11-24T08:55:19.890Z,83.83
2022-11-24T08:56:19.921Z,83.51
2022-11-24T08:57:21.885Z,83.62
2022-11-24T08:58:19.865Z,84.03
2022-11-24T08:59:20.048Z,83.83
2022-11-24T09:00:19.824Z,83.65
2022-11-24T09:01:19.914Z,83.97
2022-11-24T09:02:19.824Z,84.17
2022-11-24T09:03:19.823Z,84.38
2022-11-24T09:04:19.902Z,84.79
2022-11-24T09:05:50.123Z,84.69
2022-11-24T09:06:20.783Z,85.10
2022-11-24T09:07:19.801Z,85.31
2022-11-24T09:08:19.899Z,84.65
2022-11-24T09:09:19.726Z,84.55
2022-11-24T09:10:19.764Z,84.34
2022-11-24T09:11:19.749Z,84.09
2022-11-24T09:12:19.699Z,83.89
2022-11-24T09:13:19.685Z,83.78
2022-11-24T09:14:19.707Z,83.48
2022-11-24T09:15:19.810Z,83.37
2022-11-24T09:16:20.730Z,83.58
2022-11-24T09:17:19.660Z,83.68
2022-11-24T09:18:19.640Z,83.78
2022-11-24T09:19:19.635Z,83.78
2022-11-24T09:20:19.660Z,83.89
2022-11-24T09:21:19.599Z,83.99
2022-11-24T09:22:19.621Z,83.89
2022-11-24T09:23:19.570Z,83.75
2022-11-24T09:24:19.591Z,83.54
2022-11-24T09:25:19.573Z,83.95
2022-11-24T09:26:19.528Z,83.64
2022-11-24T09:27:19.571Z,83.64
2022-11-24T09:28:19.525Z,83.64
2022-11-24T09:29:19.509Z,83.64
2022-11-24T09:30:19.479Z,83.54
2022-11-24T09:31:19.516Z,83.54
2022-11-24T09:32:19.493Z,83.61
2022-11-24T09:33:19.512Z,82.98
2022-11-24T09:34:19.474Z,82.74
2022-11-24T09:35:19.454Z,82.43
2022-11-24T09:36:19.442Z,82.54
2022-11-24T09:37:19.414Z,82.02
2022-11-24T09:38:19.424Z,81.92
2022-11-24T09:39:19.420Z,81.88
2022-11-24T09:40:19.593Z,81.57
2022-11-24T09:41:19.381Z,80.81
2022-11-24T09:42:19.344Z,80.71
2022-11-24T09:43:19.337Z,80.61
2022-11-24T09:44:19.379Z,80.61
2022-11-24T09:45:30.378Z,80.61
2022-11-24T09:46:20.382Z,80.91
2022-11-24T09:47:19.297Z,81.05
2022-11-24T09:48:19.305Z,81.26
2022-11-24T09:49:19.286Z,81.37
2022-11-24T09:50:19.293Z,81.92
2022-11-24T09:51:19.234Z,82.02
2022-11-24T09:52:19.277Z,81.81
2022-11-24T09:53:19.253Z,82.02
2022-11-24T09:54:19.213Z,82.43
2022-11-24T09:55:19.208Z,82.74
2022-11-24T09:56:19.205Z,82.95
2022-11-24T09:57:19.185Z,83.05
2022-11-24T09:58:19.207Z,83.47
2022-11-24T09:59:19.145Z,83.56
2022-11-24T10:00:19.158Z,83.56
2022-11-24T10:01:19.214Z,83.56
2022-11-24T10:02:19.117Z,83.42
2022-11-24T10:03:19.167Z,83.22
2022-11-24T10:04:19.157Z,82.77
2022-11-24T10:05:19.123Z,82.25
2022-11-24T10:06:19.090Z,81.81
2022-11-24T10:07:19.124Z,81.81
2022-11-24T10:08:19.047Z,81.09
2022-11-24T10:09:19.048Z,80.74
2022-11-24T10:10:24.519Z,80.74
2022-11-24T10:11:20.038Z,80.84
2022-11-24T10:12:19.007Z,80.63
2022-11-24T10:13:18.992Z,80.63
2022-11-24T10:14:18.996Z,80.43
2022-11-24T10:15:18.977Z,80.22
2022-11-24T10:16:19.036Z,80.33
2022-11-24T10:17:18.955Z,80.29
2022-11-24T10:18:18.966Z,79.88
2022-11-24T10:19:18.948Z,79.12
2022-11-24T10:20:19.097Z,78.57
2022-11-24T10:21:18.914Z,78.36
2022-11-24T10:22:18.880Z,78.12
2022-11-24T10:23:18.885Z,77.47
2022-11-24T10:24:18.906Z,76.24
2022-11-24T10:25:18.898Z,76.38
2022-11-24T10:26:18.887Z,76.62
2022-11-24T10:27:18.845Z,74.26
2022-11-24T10:28:18.823Z,71.39
2022-11-24T10:29:18.944Z,69.89
2022-11-24T10:30:18.803Z,68.80
2022-11-24T10:31:18.994Z,67.55
2022-11-24T10:32:18.784Z,66.09
2022-11-24T10:33:18.795Z,67.89
2022-11-24T10:34:18.753Z,67.32
2022-11-24T10:35:18.764Z,66.97
2022-11-24T10:36:18.749Z,68.80
2022-11-24T10:37:18.780Z,70.61
2022-11-24T10:38:18.725Z,72.31
2022-11-24T10:39:18.708Z,74.22
2022-11-24T10:40:48.696Z,75.18
2022-11-24T10:41:19.674Z,76.14
2022-11-24T10:42:18.656Z,76.96
2022-11-24T10:43:18.688Z,77.61
2022-11-24T10:44:18.659Z,77.81
2022-11-24T10:45:18.628Z,77.92
2022-11-24T10:46:18.707Z,78.33
2022-11-24T10:47:18.616Z,78.78
2022-11-24T10:48:18.832Z,79.19
2022-11-24T10:49:18.602Z,79.39
2022-11-24T10:50:18.607Z,79.39
2022-11-24T10:51:18.592Z,79.60
2022-11-24T10:52:18.567Z,79.70
2022-11-24T10:53:18.559Z,79.80
2022-11-24T10:54:18.550Z,79.70
2022-11-24T10:55:21.502Z,79.91
2022-11-24T10:56:18.526Z,80.11
2022-11-24T10:57:18.501Z,80.63
2022-11-24T10:58:19.485Z,80.52
2022-11-24T10:59:18.494Z,80.21
2022-11-24T11:00:18.535Z,80.42
2022-11-24T11:01:18.612Z,80.63
2022-11-24T11:02:18.443Z,80.32
2022-11-24T11:03:18.421Z,80.42
2022-11-24T11:04:18.441Z,80.52
2022-11-24T11:05:18.454Z,80.63
2022-11-24T11:06:18.398Z,80.52
2022-11-24T11:07:18.506Z,80.73
2022-11-24T11:08:18.363Z,80.63
2022-11-24T11:09:18.603Z,80.90
2022-11-24T11:10:18.334Z,80.49
2022-11-24T11:11:18.368Z,79.87
2022-11-24T11:12:42.762Z,79.97
2022-11-24T11:13:19.339Z,79.73
2022-11-24T11:14:18.534Z,79.73
2022-11-24T11:15:18.358Z,79.42
2022-11-24T11:16:18.363Z,79.56
2022-11-24T11:17:18.346Z,79.87
2022-11-24T11:18:18.397Z,80.83
2022-11-24T11:19:53.215Z,80.83
2022-11-24T11:20:19.241Z,80.83
2022-11-24T11:21:18.226Z,81.04
2022-11-24T11:22:18.258Z,81.04
2022-11-24T11:23:18.220Z,80.83
2022-11-24T11:24:18.209Z,80.69
2022-11-24T11:25:18.189Z,80.83
2022-11-24T11:26:18.177Z,80.90
2022-11-24T11:27:18.181Z,81.34
2022-11-24T11:28:18.791Z,81.86
2022-11-24T11:31:21.330Z,82.89
2022-11-24T11:34:26.622Z,82.89
2022-11-24T11:35:19.106Z,83.09
2022-11-24T11:36:18.064Z,83.19
2022-11-24T11:37:18.047Z,83.61
2022-11-24T11:38:18.069Z,84.12
2022-11-24T11:39:18.011Z,84.22
2022-11-24T11:40:18.000Z,84.32
2022-11-24T11:41:17.994Z,84.63
2022-11-24T11:42:38.280Z,84.63
2022-11-24T11:43:19.203Z,84.77
2022-11-24T11:44:18.119Z,85.08
2022-11-24T11:45:18.057Z,84.94
2022-11-24T11:46:18.149Z,84.84
2022-11-24T11:47:17.927Z,84.74
2022-11-24T11:48:17.937Z,84.84
2022-11-24T11:49:17.925Z,84.84
2022-11-24T11:50:17.976Z,84.69
2022-11-24T11:51:25.005Z,84.59
2022-11-24T11:52:18.877Z,84.39
2022-11-24T11:53:17.865Z,84.59
2022-11-24T11:54:17.877Z,84.59
2022-11-24T11:55:17.854Z,84.49
2022-11-24T11:56:17.849Z,84.25
2022-11-24T11:57:17.806Z,84.14
2022-11-24T11:58:17.821Z,83.94
2022-11-24T11:59:17.805Z,83.83
2022-11-24T12:00:17.800Z,83.59
2022-11-24T12:01:17.793Z,83.49
2022-11-24T12:02:17.798Z,83.39
2022-11-24T12:03:17.842Z,83.28
2022-11-24T12:04:17.763Z,83.04
2022-11-24T12:05:17.747Z,82.73
2022-11-24T12:06:17.731Z,82.53
2022-11-24T12:07:17.745Z,82.32
2022-11-24T12:08:21.068Z,82.42
2022-11-24T12:09:20.784Z,81.67
2022-11-24T12:10:17.774Z,81.26
2022-11-24T12:11:17.878Z,81.15
2022-11-24T12:12:17.658Z,80.71
2022-11-24T12:13:17.618Z,80.60
2022-11-24T12:14:17.648Z,81.22
2022-11-24T12:15:17.620Z,81.24
2022-11-24T12:16:17.713Z,79.82
2022-11-24T12:17:17.591Z,79.06
2022-11-24T12:18:48.573Z,78.45
2022-11-24T12:19:18.567Z,77.97
2022-11-24T12:20:17.571Z,75.31
2022-11-24T12:21:22.864Z,73.84
2022-11-24T12:22:18.541Z,72.34
2022-11-24T12:23:17.519Z,72.92
2022-11-24T12:24:17.576Z,71.23
2022-11-24T12:25:17.482Z,69.67
2022-11-24T12:26:17.505Z,68.88
2022-11-24T12:27:22.579Z,70.14
2022-11-24T12:28:18.506Z,70.68
2022-11-24T12:29:17.452Z,71.26
2022-11-24T12:30:17.431Z,69.80
2022-11-24T12:31:17.484Z,66.96
2022-11-24T12:32:17.969Z,68.92
2022-11-24T12:33:17.428Z,67.83
2022-11-24T12:34:17.404Z,67.52
2022-11-24T12:35:17.363Z,68.13
2022-11-24T12:36:17.356Z,66.58
2022-11-24T12:37:17.349Z,65.63
2022-11-24T12:38:17.408Z,63.02
2022-11-24T12:39:17.335Z,62.70
2022-11-24T12:40:17.332Z,63.30
2022-11-24T12:41:40.615Z,64.81
2022-11-24T12:42:18.296Z,65.80
2022-11-24T12:43:17.350Z,65.45
2022-11-24T12:44:17.309Z,65.58
2022-11-24T12:45:17.260Z,66.63
2022-11-24T12:46:17.751Z,67.27
2022-11-24T12:47:17.226Z,68.09
2022-11-24T12:48:17.266Z,68.33
2022-11-24T12:49:17.205Z,68.53
2022-11-24T12:50:17.305Z,69.35
2022-11-24T12:51:17.224Z,68.94
2022-11-24T12:52:17.202Z,68.97
2022-11-24T12:53:17.185Z,69.28
2022-11-24T12:54:17.183Z,69.48
2022-11-24T12:55:17.156Z,69.48
2022-11-24T12:56:17.171Z,69.89